createdAt,value
2018-07-22T00:01:50.667Z,63.21
2018-07-22T00:04:19.399Z,63.42
2018-07-22T00:06:48.046Z,63.63
2018-07-22T00:09:16.842Z,63.57
2018-07-22T00:11:45.546Z,63.42
2018-07-22T00:14:14.520Z,63.34
2018-07-22T00:16:43.408Z,63.53
2018-07-22T00:19:12.263Z,63.76
2018-07-22T00:21:40.931Z,64.04
2018-07-22T00:24:09.657Z,64.03
2018-07-22T00:26:38.309Z,64.19
2018-07-22T00:29:06.998Z,64.30
2018-07-22T00:31:35.759Z,64.59
2018-07-22T00:34:04.491Z,65.08
2018-07-22T00:36:33.183Z,65.60
2018-07-22T00:39:01.879Z,65.84
2018-07-22T00:41:30.984Z,66.10
2018-07-22T00:43:59.673Z,66.54
2018-07-22T00:46:28.343Z,66.67
2018-07-22T00:48:57.071Z,67.32
2018-07-22T00:51:25.720Z,67.15
2018-07-22T00:53:54.398Z,67.11
2018-07-22T00:56:23.076Z,67.12
2018-07-22T00:58:51.728Z,67.30
2018-07-22T01:01:20.683Z,66.93
2018-07-22T01:03:49.755Z,67.83
2018-07-22T01:06:18.425Z,67.63
2018-07-22T01:08:47.076Z,67.56
2018-07-22T01:11:15.771Z,67.90
2018-07-22T01:13:44.546Z,67.99
2018-07-22T01:16:13.327Z,68.54
2018-07-22T01:18:41.982Z,68.77
2018-07-22T01:21:10.706Z,69.11
2018-07-22T01:23:39.417Z,69.36
2018-07-22T01:26:08.162Z,69.10
2018-07-22T01:28:36.820Z,69.39
2018-07-22T01:31:05.474Z,69.27
2018-07-22T01:33:34.172Z,69.22
2018-07-22T01:36:02.827Z,69.88
2018-07-22T01:38:31.489Z,70.21
2018-07-22T01:41:00.187Z,70.11
2018-07-22T01:43:28.912Z,70.49
2018-07-22T01:45:57.622Z,70.39
2018-07-22T01:48:26.265Z,70.21
2018-07-22T01:50:54.936Z,70.71
2018-07-22T01:53:23.660Z,70.35
2018-07-22T01:55:52.321Z,71.19
2018-07-22T01:58:20.960Z,71.35
2018-07-22T02:00:49.689Z,71.20
2018-07-22T02:03:18.346Z,70.76
2018-07-22T02:05:47.041Z,71.32
2018-07-22T02:08:15.755Z,71.53
2018-07-22T02:10:44.406Z,71.71
2018-07-22T02:13:13.134Z,71.07
2018-07-22T02:15:41.829Z,71.90
2018-07-22T02:18:10.494Z,72.23
2018-07-22T02:20:39.155Z,71.89
2018-07-22T02:23:07.892Z,71.19
2018-07-22T02:25:36.565Z,71.26
2018-07-22T02:28:05.315Z,71.14
2018-07-22T02:30:34.062Z,71.15
2018-07-22T02:33:02.731Z,70.20
2018-07-22T02:35:31.425Z,70.11
2018-07-22T02:38:01.324Z,69.95
2018-07-22T02:40:30.019Z,69.23
2018-07-22T02:42:58.686Z,69.42
2018-07-22T02:45:27.411Z,68.52
2018-07-22T02:47:56.100Z,69.03
2018-07-22T02:50:24.927Z,69.85
2018-07-22T02:52:53.579Z,69.96
2018-07-22T02:55:22.303Z,70.09
2018-07-22T02:57:50.984Z,70.96
2018-07-22T03:00:19.694Z,70.46
2018-07-22T03:02:48.464Z,71.17
2018-07-22T03:05:17.102Z,70.54
2018-07-22T03:07:45.779Z,70.84
2018-07-22T03:10:14.443Z,71.33
2018-07-22T03:12:43.166Z,70.68
2018-07-22T03:15:11.871Z,70.48
2018-07-22T03:17:40.526Z,70.20
2018-07-22T03:20:09.750Z,70.69
2018-07-22T03:22:38.402Z,70.25
2018-07-22T03:25:07.197Z,70.61
2018-07-22T03:27:35.878Z,70.57
2018-07-22T03:30:06.427Z,70.51
2018-07-22T03:32:35.164Z,70.53
2018-07-22T03:35:03.910Z,70.31
2018-07-22T03:37:32.632Z,70.56
2018-07-22T03:40:01.361Z,70.35
2018-07-22T03:42:30.150Z,70.25
2018-07-22T03:44:58.837Z,70.15
2018-07-22T03:47:27.597Z,70.38
2018-07-22T03:49:56.208Z,70.18
2018-07-22T03:52:24.990Z,71.30
2018-07-22T03:54:53.761Z,70.91
2018-07-22T03:57:22.398Z,70.91
2018-07-22T03:59:51.022Z,70.48
2018-07-22T04:02:19.743Z,70.47
2018-07-22T04:04:48.418Z,71.56
2018-07-22T04:07:17.091Z,71.56
2018-07-22T04:09:45.891Z,70.79
2018-07-22T04:12:14.534Z,71.10
2018-07-22T04:14:43.240Z,71.09
2018-07-22T04:17:12.200Z,71.14
2018-07-22T04:19:40.900Z,70.53
2018-07-22T04:22:09.556Z,70.26
2018-07-22T04:24:38.239Z,70.67
2018-07-22T04:27:07.034Z,71.07
2018-07-22T04:29:35.696Z,70.71
2018-07-22T04:32:04.418Z,70.79
2018-07-22T04:34:33.159Z,71.10
2018-07-22T04:37:01.853Z,70.96
2018-07-22T04:39:30.544Z,70.66
2018-07-22T04:41:59.261Z,70.63
2018-07-22T04:44:27.950Z,70.67
2018-07-22T04:46:56.610Z,70.19
2018-07-22T04:49:25.549Z,70.17
2018-07-22T04:51:54.208Z,69.77
2018-07-22T04:54:22.906Z,69.63
2018-07-22T04:56:51.556Z,69.75
2018-07-22T04:59:20.530Z,69.31
2018-07-22T05:01:49.215Z,68.82
2018-07-22T05:04:17.874Z,68.21
2018-07-22T05:06:46.582Z,68.70
2018-07-22T05:09:15.275Z,68.23
2018-07-22T05:11:43.990Z,67.99
2018-07-22T05:14:12.671Z,67.63
2018-07-22T05:16:41.348Z,66.57
2018-07-22T05:19:10.118Z,66.31
2018-07-22T05:21:38.771Z,66.16
2018-07-22T05:24:07.449Z,64.40
2018-07-22T05:26:36.147Z,65.10
2018-07-22T05:29:04.930Z,62.42
2018-07-22T05:31:33.635Z,62.85
2018-07-22T05:34:02.307Z,63.03
2018-07-22T05:36:31.002Z,63.07
2018-07-22T05:38:59.713Z,63.34
2018-07-22T05:41:28.531Z,63.22
2018-07-22T05:43:57.205Z,63.62
2018-07-22T05:46:25.891Z,62.90
2018-07-22T05:48:54.621Z,63.16
2018-07-22T05:51:23.309Z,62.52
2018-07-22T10:10:53.679Z,44.06
2018-07-22T10:13:22.351Z,43.68
2018-07-22T10:15:51.103Z,42.45
2018-07-22T10:18:19.795Z,42.29
2018-07-22T10:20:49.483Z,42.45
2018-07-22T10:23:18.233Z,42.14
2018-07-22T10:25:49.329Z,41.76
2018-07-22T10:28:22.053Z,42.47
2018-07-22T10:30:50.793Z,43.10
2018-07-22T10:33:19.571Z,41.61
2018-07-22T10:35:48.228Z,41.09
2018-07-22T10:38:16.910Z,42.83
2018-07-22T10:40:45.650Z,42.76
2018-07-22T10:43:14.323Z,40.37
2018-07-22T10:45:43.027Z,41.00
2018-07-22T10:48:11.722Z,39.96
2018-07-22T10:50:40.379Z,39.33
2018-07-22T10:53:09.038Z,39.82
2018-07-22T10:55:37.736Z,39.95
2018-07-22T10:58:06.530Z,39.49
2018-07-22T11:00:35.981Z,39.95
2018-07-22T11:03:06.494Z,40.67
2018-07-22T11:05:35.300Z,38.80
2018-07-22T11:08:04.062Z,36.91
2018-07-22T11:10:32.743Z,37.52
2018-07-22T11:13:01.455Z,36.09
2018-07-22T11:15:30.146Z,36.02
2018-07-22T11:17:58.790Z,34.99
2018-07-22T11:20:27.641Z,34.37
2018-07-22T11:22:56.322Z,35.06
2018-07-22T11:25:24.979Z,33.51
2018-07-22T11:27:53.802Z,32.48
2018-07-22T11:30:22.934Z,32.83
2018-07-22T11:32:52.609Z,33.75
2018-07-22T11:35:21.246Z,33.04
2018-07-22T11:37:50.214Z,32.96
2018-07-22T11:40:18.873Z,34.62
2018-07-22T11:42:47.553Z,31.11
2018-07-22T11:45:16.271Z,33.36
2018-07-22T11:47:44.950Z,30.48
2018-07-22T11:50:13.674Z,31.67
2018-07-22T11:52:42.546Z,29.27
2018-07-22T11:55:11.341Z,29.56
2018-07-22T11:57:40.019Z,29.69
2018-07-22T12:00:08.841Z,31.02
2018-07-22T12:02:37.539Z,31.18
2018-07-22T12:05:06.318Z,33.02
2018-07-22T12:07:39.932Z,33.26
2018-07-22T12:10:11.584Z,32.86
2018-07-22T12:12:40.270Z,32.52
2018-07-22T12:15:09.805Z,32.88
2018-07-22T12:17:39.637Z,31.27
2018-07-22T12:20:08.376Z,30.97
2018-07-22T12:22:37.291Z,30.86
2018-07-22T12:25:06.061Z,30.50
2018-07-22T12:27:36.703Z,31.62
2018-07-22T12:30:09.592Z,32.90
2018-07-22T12:32:39.592Z,33.08
2018-07-22T12:35:08.275Z,34.57
2018-07-22T12:37:36.994Z,35.19
2018-07-22T12:40:05.995Z,35.44
2018-07-22T12:42:34.700Z,38.20
2018-07-22T12:45:03.507Z,36.58
2018-07-22T12:47:32.179Z,38.15
2018-07-22T12:50:00.887Z,38.73
2018-07-22T12:52:29.583Z,39.77
2018-07-22T12:54:58.327Z,40.71
2018-07-22T12:57:27.079Z,40.87
2018-07-22T12:59:55.763Z,40.62
2018-07-22T13:02:24.486Z,41.15
2018-07-22T13:04:53.156Z,41.64
2018-07-22T13:07:21.811Z,42.04
2018-07-22T13:09:50.633Z,41.38
2018-07-22T13:12:19.303Z,44.51
2018-07-22T13:14:47.963Z,45.48
2018-07-22T13:17:17.321Z,49.50
2018-07-22T13:19:45.968Z,52.67
2018-07-22T13:22:14.646Z,55.07
2018-07-22T13:24:43.354Z,53.23
2018-07-22T13:27:12.134Z,48.66
2018-07-22T13:29:40.832Z,53.17
2018-07-22T13:32:09.938Z,54.66
2018-07-22T13:34:39.014Z,62.33
2018-07-22T13:37:08.066Z,61.93
2018-07-22T13:39:36.692Z,60.65
2018-07-22T13:42:06.166Z,57.55
2018-07-22T13:44:37.031Z,57.01
2018-07-22T13:47:07.064Z,55.76
2018-07-22T13:49:36.541Z,52.14
2018-07-22T13:52:07.283Z,55.16
2018-07-22T13:54:36.819Z,51.55
2018-07-22T13:57:06.351Z,51.57
2018-07-22T13:59:36.483Z,49.78
2018-07-22T14:02:06.292Z,48.09
2018-07-22T14:04:36.995Z,47.04
2018-07-22T14:07:05.661Z,43.92
2018-07-22T14:09:34.283Z,42.37
2018-07-22T14:12:02.963Z,43.62
2018-07-22T14:14:31.655Z,47.27
2018-07-22T14:17:00.613Z,46.84
2018-07-22T14:19:29.302Z,45.16
2018-07-22T14:21:57.983Z,42.03
2018-07-22T14:24:26.696Z,39.97
2018-07-22T14:26:55.357Z,36.78
2018-07-22T14:29:24.062Z,37.31
2018-07-22T14:31:52.763Z,39.18
2018-07-22T14:34:21.487Z,34.49
2018-07-22T14:36:50.169Z,34.97
2018-07-22T14:39:19.247Z,34.87
2018-07-22T14:41:47.910Z,33.85
2018-07-22T14:44:17.178Z,33.72
2018-07-22T14:46:46.426Z,35.47
2018-07-22T14:49:15.840Z,35.86
2018-07-22T14:51:45.258Z,33.65
2018-07-22T14:54:14.814Z,31.58
2018-07-22T14:56:44.292Z,32.59
2018-07-22T14:59:13.555Z,31.83
2018-07-22T15:01:42.810Z,34.44
2018-07-22T15:04:12.227Z,31.69
2018-07-22T15:06:41.489Z,33.87
2018-07-22T15:09:10.759Z,37.18
2018-07-22T15:11:39.916Z,37.61
2018-07-22T15:14:08.967Z,38.67
2018-07-22T15:16:37.651Z,38.90
2018-07-22T15:19:07.036Z,42.41
2018-07-22T15:21:36.190Z,42.64
2018-07-22T15:24:05.510Z,39.02
2018-07-22T15:26:34.152Z,39.31
2018-07-22T15:29:02.828Z,38.56
2018-07-22T15:31:31.495Z,39.95
2018-07-22T15:34:00.154Z,38.85
2018-07-22T15:36:28.857Z,36.94
2018-07-22T15:38:57.544Z,42.08
2018-07-22T15:41:26.194Z,39.58
2018-07-22T15:43:55.425Z,42.62
2018-07-22T15:46:24.086Z,42.97
2018-07-22T15:48:52.907Z,42.22
2018-07-22T15:51:21.591Z,40.35
2018-07-22T15:53:50.291Z,38.55
2018-07-22T15:56:18.940Z,39.08
2018-07-22T15:58:48.473Z,37.91
2018-07-22T16:01:17.295Z,38.56
2018-07-22T16:03:46.037Z,39.99
2018-07-22T16:06:14.853Z,40.54
2018-07-22T16:08:43.523Z,39.21
2018-07-22T16:11:12.261Z,40.00
2018-07-22T16:13:41.201Z,41.58
2018-07-22T16:16:09.879Z,41.15
2018-07-22T16:18:42.239Z,41.22
2018-07-22T16:21:10.945Z,39.85
2018-07-22T16:23:39.795Z,39.90
2018-07-22T16:26:08.910Z,41.32
2018-07-22T16:28:37.577Z,39.58
2018-07-22T16:31:07.072Z,41.46
2018-07-22T16:33:35.974Z,42.35
2018-07-22T16:36:04.660Z,42.66
2018-07-22T16:38:33.357Z,42.97
2018-07-22T16:41:02.085Z,41.87
2018-07-22T16:43:30.810Z,44.42
2018-07-22T16:45:59.558Z,44.04
2018-07-22T16:48:28.237Z,46.39
2018-07-22T16:50:56.960Z,46.60
2018-07-22T16:53:25.680Z,48.62
2018-07-22T16:55:54.329Z,48.53
2018-07-22T16:58:23.009Z,48.36
2018-07-22T17:00:51.811Z,49.73
2018-07-22T17:03:21.372Z,48.91
2018-07-22T17:05:50.125Z,50.30
2018-07-22T17:08:19.318Z,50.30
2018-07-22T17:10:48.182Z,49.39
2018-07-22T17:13:16.878Z,50.00
2018-07-22T17:15:45.583Z,50.09
2018-07-22T17:18:14.258Z,49.40
2018-07-22T17:20:43.079Z,49.81
2018-07-22T17:23:11.891Z,48.67
2018-07-22T17:25:40.551Z,50.67
2018-07-22T17:28:09.285Z,51.59
2018-07-22T17:30:38.022Z,52.24
2018-07-22T17:33:07.084Z,50.52
2018-07-22T17:35:35.924Z,50.02
2018-07-22T17:38:04.683Z,50.31
2018-07-22T17:44:02.690Z,53.48
2018-07-22T17:46:31.444Z,51.77
2018-07-22T17:49:00.122Z,52.46
2018-07-22T17:51:28.805Z,53.59
2018-07-22T17:53:57.468Z,51.63
2018-07-22T17:56:26.280Z,52.33
2018-07-22T17:58:54.961Z,51.87
2018-07-22T18:01:23.746Z,52.90
2018-07-22T18:03:52.454Z,54.17
2018-07-22T18:06:21.227Z,54.42
2018-07-22T18:08:49.922Z,55.34
2018-07-22T18:11:18.605Z,55.09
2018-07-22T18:13:47.386Z,56.10
2018-07-22T18:16:16.561Z,55.98
2018-07-22T18:18:45.384Z,56.62
2018-07-22T18:21:14.118Z,56.34
2018-07-22T18:23:42.805Z,57.16
2018-07-22T18:26:11.502Z,57.78
2018-07-22T18:28:40.236Z,58.41
2018-07-22T18:31:08.946Z,57.38
2018-07-22T18:33:37.721Z,57.85
2018-07-22T18:36:06.542Z,57.69
2018-07-22T18:38:35.255Z,57.96
2018-07-22T18:41:04.003Z,57.48
2018-07-22T18:43:32.734Z,59.00
2018-07-22T18:46:01.525Z,58.73
2018-07-22T18:48:30.475Z,58.96
2018-07-22T18:50:59.215Z,59.63
2018-07-22T18:53:27.931Z,60.15
2018-07-22T18:55:56.806Z,60.19
2018-07-22T18:58:25.550Z,60.51
2018-07-22T19:00:55.129Z,61.89
2018-07-22T19:03:23.824Z,61.35
2018-07-22T19:05:52.547Z,60.96
2018-07-22T19:08:21.300Z,62.70
2018-07-22T19:10:50.033Z,62.08
2018-07-22T19:13:18.729Z,61.86
2018-07-22T19:15:47.420Z,62.18
2018-07-22T19:18:16.095Z,62.62
2018-07-22T19:20:44.756Z,62.32
2018-07-22T19:23:13.476Z,62.68
2018-07-22T19:25:42.331Z,62.55
2018-07-22T19:28:11.422Z,63.21
2018-07-22T19:30:40.187Z,62.82
2018-07-22T19:33:09.262Z,62.78
2018-07-22T19:35:44.129Z,62.67
2018-07-22T19:38:13.534Z,62.67
2018-07-22T19:40:42.587Z,62.78
2018-07-22T19:43:11.327Z,61.89
2018-07-22T19:45:40.075Z,62.43
2018-07-22T19:48:08.969Z,63.34
2018-07-22T19:50:37.695Z,65.49
2018-07-22T19:53:06.404Z,66.15
2018-07-22T19:55:35.101Z,66.71
2018-07-22T19:58:03.904Z,67.21
2018-07-22T20:00:32.736Z,67.14
2018-07-22T20:03:01.537Z,67.17
2018-07-22T20:05:30.261Z,66.67
2018-07-22T20:07:59.173Z,66.44
2018-07-22T20:10:27.860Z,66.67
2018-07-22T20:12:56.563Z,66.78
2018-07-22T20:15:25.235Z,65.04
2018-07-22T20:17:53.967Z,66.27
2018-07-22T20:20:22.709Z,65.67
2018-07-22T20:22:51.547Z,66.62
2018-07-22T20:25:20.286Z,67.14
2018-07-22T20:27:49.063Z,67.01
2018-07-22T20:30:17.892Z,66.25
2018-07-22T20:32:46.574Z,66.26
2018-07-22T20:35:15.290Z,67.19
2018-07-22T20:37:44.074Z,67.20
2018-07-22T20:40:12.887Z,66.24
2018-07-22T20:42:41.595Z,66.93
2018-07-22T20:45:11.232Z,67.64
2018-07-22T20:47:39.903Z,66.57
2018-07-22T20:50:08.580Z,66.56
2018-07-22T20:52:37.370Z,66.37
2018-07-22T20:55:06.762Z,66.47
2018-07-22T20:57:35.544Z,67.12
2018-07-22T21:00:05.921Z,67.43
2018-07-22T21:02:34.793Z,67.44
2018-07-22T21:05:04.036Z,67.06
2018-07-22T21:07:32.816Z,67.63
2018-07-22T21:10:01.513Z,66.61
2018-07-22T21:12:43.690Z,66.88
2018-07-22T21:15:12.847Z,67.15
2018-07-22T21:17:41.706Z,68.50
2018-07-22T21:20:10.363Z,68.58
2018-07-22T21:22:39.465Z,68.21
2018-07-22T21:25:08.210Z,66.51
2018-07-22T21:27:36.950Z,66.96
2018-07-22T21:30:07.776Z,66.09
2018-07-22T21:32:36.467Z,66.41
2018-07-22T21:35:05.512Z,66.07
2018-07-22T21:37:34.382Z,67.29
2018-07-22T21:40:03.152Z,66.41
2018-07-22T21:42:32.774Z,66.31
2018-07-22T21:45:01.778Z,67.09
2018-07-22T21:47:30.559Z,66.30
2018-07-22T21:49:59.299Z,64.70
2018-07-22T21:52:27.963Z,65.53
2018-07-22T21:54:56.675Z,66.30
2018-07-22T21:57:25.555Z,66.68
2018-07-22T21:59:54.188Z,66.44
2018-07-22T22:02:27.139Z,66.39
2018-07-22T22:04:56.247Z,66.48
2018-07-22T22:07:25.077Z,66.74
2018-07-22T22:09:54.228Z,66.73
2018-07-22T22:12:23.622Z,66.73
2018-07-22T22:14:52.316Z,66.44
2018-07-22T22:17:21.012Z,65.91
2018-07-22T22:19:49.702Z,66.46
2018-07-22T22:22:18.351Z,65.94
2018-07-22T22:24:47.903Z,65.94
2018-07-22T22:27:16.648Z,65.39
2018-07-22T22:29:45.339Z,64.99
2018-07-22T22:32:14.048Z,64.76
2018-07-22T22:34:42.720Z,65.14
2018-07-22T22:37:11.419Z,64.66
2018-07-22T22:39:40.133Z,64.58
2018-07-22T22:42:09.286Z,64.08
2018-07-22T22:44:37.972Z,64.59
2018-07-22T22:47:06.659Z,64.54
2018-07-22T22:49:35.347Z,64.96
2018-07-22T22:52:04.076Z,64.84
2018-07-22T22:54:33.874Z,65.04
2018-07-22T22:57:02.538Z,65.34
2018-07-22T22:59:31.195Z,65.18
2018-07-22T23:01:59.932Z,65.20
2018-07-22T23:04:28.581Z,65.02
2018-07-22T23:06:57.390Z,64.33
2018-07-22T23:09:26.070Z,65.01
2018-07-22T23:11:55.035Z,65.29
2018-07-22T23:14:23.691Z,65.45
2018-07-22T23:16:52.464Z,65.51
2018-07-22T23:19:21.143Z,65.88
2018-07-22T23:21:49.800Z,64.99
2018-07-22T23:24:18.525Z,65.21
2018-07-22T23:26:47.217Z,65.84
2018-07-22T23:29:15.935Z,65.65
2018-07-22T23:31:44.651Z,65.47
2018-07-22T23:34:13.309Z,65.59
2018-07-22T23:36:42.020Z,65.33
2018-07-22T23:39:10.841Z,65.68
2018-07-22T23:41:39.551Z,65.82
2018-07-22T23:44:08.466Z,65.86
2018-07-22T23:46:37.152Z,65.12
2018-07-22T23:49:06.016Z,65.30
2018-07-22T23:51:34.737Z,64.88
2018-07-22T23:54:03.423Z,65.00
2018-07-22T23:56:32.108Z,64.83
2018-07-22T23:59:00.818Z,64.78
